Nearby METAR Reports

 

YMML - Melbourne Intl A, Australia
Distance from station: SSW 13km
Updated: Sun, 21-Oct-2018 2:30am AEDT
Clear
Clear
 Wind from WNW
Wind: WNW 13 km/h
Temperature: 7°C
Wind Chill: 5°C
Dew Point: 5°C
Humidity: 87%
Barometer: 1019 hPa
Summary: Clear
Visibility: greater than 10 km
2018/10/20 15:30 YMML 201530Z 29007KT CAVOK 07/05 Q1019 NOSIG
YMEN - Melbourne/Essend, Australia
Distance from station: S 16km
Updated: Sun, 21-Oct-2018 2:00am AEDT
Clear
Clear
 Wind from WNW
Wind: WNW 11 km/h
Temperature: 9°C
Wind Chill: 7°C
Dew Point: 7°C
Humidity: 87%
Barometer: 1019 hPa
Clouds: Clear
Visibility: 10 km
2018/10/20 15:00 YMEN 201500Z AUTO 30006KT 9999 // NCD 09/07 Q1019
 
YMAV - Avalon Airport, Australia
Distance from station: SW 63km
Updated: Sun, 21-Oct-2018 2:30am AEDT
Partly Cloudy
Partly Cloudy
 Wind from NW
Wind: NW 15 km/h
Temperature: 8°C
Wind Chill: 5°C
Dew Point: 7°C
Humidity: 93%
Barometer: 1019 hPa
Clouds: Partly Cloudy
Visibility: 10 km
Cloud details: Partly Cloudy 1707 m
2018/10/20 15:30 YMAV 201530Z AUTO 32008KT 9999 // SCT056 08/07 Q1019 RF00.0/004.4

Metar display script from Saratoga-Weather.org